sensor_id;sensor_type;location;lat;lon;timestamp;P1;durP1;ratioP1;P2;durP2;ratioP2
58109;SDS011;58943;50.168;4.410;2023-06-10T00:02:09;5.68;;;4.88;;
58109;SDS011;58943;50.168;4.410;2023-06-10T00:04:35;6.25;;;5.10;;
58109;SDS011;58943;50.168;4.410;2023-06-10T00:07:05;5.65;;;4.70;;
58109;SDS011;58943;50.168;4.410;2023-06-10T00:09:37;5.30;;;4.75;;
58109;SDS011;58943;50.168;4.410;2023-06-10T00:12:04;5.65;;;4.68;;
58109;SDS011;58943;50.168;4.410;2023-06-10T00:14:32;5.70;;;4.82;;
58109;SDS011;58943;50.168;4.410;2023-06-10T00:16:58;5.20;;;4.70;;
58109;SDS011;58943;50.168;4.410;2023-06-10T00:19:25;4.50;;;4.20;;
58109;SDS011;58943;50.168;4.410;2023-06-10T00:21:56;5.30;;;4.80;;
58109;SDS011;58943;50.168;4.410;2023-06-10T00:24:22;6.30;;;4.28;;
58109;SDS011;58943;50.168;4.410;2023-06-10T00:26:48;5.10;;;4.60;;
58109;SDS011;58943;50.168;4.410;2023-06-10T00:29:15;5.45;;;4.95;;
58109;SDS011;58943;50.168;4.410;2023-06-10T00:31:42;5.15;;;4.55;;
58109;SDS011;58943;50.168;4.410;2023-06-10T00:34:08;5.18;;;4.68;;
58109;SDS011;58943;50.168;4.410;2023-06-10T00:36:34;7.22;;;4.57;;
58109;SDS011;58943;50.168;4.410;2023-06-10T00:39:01;5.70;;;5.10;;
58109;SDS011;58943;50.168;4.410;2023-06-10T00:41:27;6.40;;;5.13;;
58109;SDS011;58943;50.168;4.410;2023-06-10T00:43:54;5.25;;;4.68;;
58109;SDS011;58943;50.168;4.410;2023-06-10T00:46:21;5.03;;;4.53;;
58109;SDS011;58943;50.168;4.410;2023-06-10T00:48:47;5.55;;;5.00;;
58109;SDS011;58943;50.168;4.410;2023-06-10T00:51:14;5.43;;;4.75;;
58109;SDS011;58943;50.168;4.410;2023-06-10T00:53:41;5.15;;;4.65;;
58109;SDS011;58943;50.168;4.410;2023-06-10T00:56:08;4.82;;;4.40;;
58109;SDS011;58943;50.168;4.410;2023-06-10T00:58:35;5.30;;;4.80;;
58109;SDS011;58943;50.168;4.410;2023-06-10T01:01:02;5.43;;;4.70;;
58109;SDS011;58943;50.168;4.410;2023-06-10T01:03:29;5.05;;;4.55;;
58109;SDS011;58943;50.168;4.410;2023-06-10T01:05:59;5.20;;;4.47;;
58109;SDS011;58943;50.168;4.410;2023-06-10T01:08:40;5.45;;;4.95;;
58109;SDS011;58943;50.168;4.410;2023-06-10T01:11:08;5.35;;;4.57;;
58109;SDS011;58943;50.168;4.410;2023-06-10T01:13:37;6.97;;;4.75;;
58109;SDS011;58943;50.168;4.410;2023-06-10T01:18:32;6.03;;;4.53;;
58109;SDS011;58943;50.168;4.410;2023-06-10T01:20:59;5.43;;;4.72;;
58109;SDS011;58943;50.168;4.410;2023-06-10T01:23:26;5.13;;;4.63;;
58109;SDS011;58943;50.168;4.410;2023-06-10T01:25:53;5.85;;;4.80;;
58109;SDS011;58943;50.168;4.410;2023-06-10T01:33:38;5.88;;;4.88;;
58109;SDS011;58943;50.168;4.410;2023-06-10T01:36:05;7.43;;;5.33;;
58109;SDS011;58943;50.168;4.410;2023-06-10T01:38:33;6.32;;;4.70;;
58109;SDS011;58943;50.168;4.410;2023-06-10T01:41:00;6.40;;;5.30;;
58109;SDS011;58943;50.168;4.410;2023-06-10T01:43:26;4.85;;;4.45;;
58109;SDS011;58943;50.168;4.410;2023-06-10T01:45:53;5.25;;;4.75;;
58109;SDS011;58943;50.168;4.410;2023-06-10T01:48:19;5.30;;;4.80;;
58109;SDS011;58943;50.168;4.410;2023-06-10T01:50:45;5.63;;;5.00;;
58109;SDS011;58943;50.168;4.410;2023-06-10T01:53:12;6.10;;;5.32;;
58109;SDS011;58943;50.168;4.410;2023-06-10T01:55:38;5.53;;;5.00;;
58109;SDS011;58943;50.168;4.410;2023-06-10T01:58:05;5.50;;;5.00;;
58109;SDS011;58943;50.168;4.410;2023-06-10T02:00:31;5.75;;;5.15;;
58109;SDS011;58943;50.168;4.410;2023-06-10T02:02:58;6.50;;;4.95;;
58109;SDS011;58943;50.168;4.410;2023-06-10T02:05:24;5.97;;;4.57;;
58109;SDS011;58943;50.168;4.410;2023-06-10T02:07:50;5.28;;;4.78;;
58109;SDS011;58943;50.168;4.410;2023-06-10T02:10:17;4.97;;;4.57;;
58109;SDS011;58943;50.168;4.410;2023-06-10T02:12:43;6.28;;;5.50;;
58109;SDS011;58943;50.168;4.410;2023-06-10T02:15:10;6.68;;;5.50;;
58109;SDS011;58943;50.168;4.410;2023-06-10T02:17:36;6.45;;;4.97;;
58109;SDS011;58943;50.168;4.410;2023-06-10T02:20:03;8.68;;;5.18;;
58109;SDS011;58943;50.168;4.410;2023-06-10T02:24:58;6.60;;;5.28;;
58109;SDS011;58943;50.168;4.410;2023-06-10T02:27:24;7.05;;;5.07;;
58109;SDS011;58943;50.168;4.410;2023-06-10T02:29:51;5.80;;;5.20;;
58109;SDS011;58943;50.168;4.410;2023-06-10T02:32:17;6.63;;;5.03;;
58109;SDS011;58943;50.168;4.410;2023-06-10T02:34:44;6.50;;;5.25;;
58109;SDS011;58943;50.168;4.410;2023-06-10T02:37:11;5.68;;;5.18;;
58109;SDS011;58943;50.168;4.410;2023-06-10T02:39:37;5.55;;;5.05;;
58109;SDS011;58943;50.168;4.410;2023-06-10T02:42:04;5.38;;;4.88;;
58109;SDS011;58943;50.168;4.410;2023-06-10T02:44:30;5.65;;;5.13;;
58109;SDS011;58943;50.168;4.410;2023-06-10T02:46:57;6.28;;;5.05;;
58109;SDS011;58943;50.168;4.410;2023-06-10T02:49:23;5.95;;;5.35;;
58109;SDS011;58943;50.168;4.410;2023-06-10T02:51:50;5.45;;;4.93;;
58109;SDS011;58943;50.168;4.410;2023-06-10T02:54:21;8.10;;;5.38;;
58109;SDS011;58943;50.168;4.410;2023-06-10T02:56:48;5.68;;;5.07;;
58109;SDS011;58943;50.168;4.410;2023-06-10T02:59:15;6.20;;;5.60;;
58109;SDS011;58943;50.168;4.410;2023-06-10T03:01:41;5.63;;;5.13;;
58109;SDS011;58943;50.168;4.410;2023-06-10T03:04:08;5.60;;;5.03;;
58109;SDS011;58943;50.168;4.410;2023-06-10T03:06:35;5.80;;;5.20;;
58109;SDS011;58943;50.168;4.410;2023-06-10T03:09:01;6.22;;;5.10;;
58109;SDS011;58943;50.168;4.410;2023-06-10T03:11:32;5.32;;;4.82;;
58109;SDS011;58943;50.168;4.410;2023-06-10T03:13:59;5.88;;;5.38;;
58109;SDS011;58943;50.168;4.410;2023-06-10T03:16:25;6.05;;;5.47;;
58109;SDS011;58943;50.168;4.410;2023-06-10T03:18:52;6.18;;;5.57;;
58109;SDS011;58943;50.168;4.410;2023-06-10T03:21:19;5.88;;;5.38;;
58109;SDS011;58943;50.168;4.410;2023-06-10T03:23:46;5.22;;;4.82;;
58109;SDS011;58943;50.168;4.410;2023-06-10T03:26:12;6.43;;;5.70;;
58109;SDS011;58943;50.168;4.410;2023-06-10T03:28:40;5.60;;;5.10;;
58109;SDS011;58943;50.168;4.410;2023-06-10T03:31:07;6.13;;;5.25;;
58109;SDS011;58943;50.168;4.410;2023-06-10T03:33:33;5.45;;;4.93;;
58109;SDS011;58943;50.168;4.410;2023-06-10T03:36:01;7.47;;;5.50;;
58109;SDS011;58943;50.168;4.410;2023-06-10T03:38:27;5.93;;;5.32;;
58109;SDS011;58943;50.168;4.410;2023-06-10T03:40:53;5.72;;;5.13;;
58109;SDS011;58943;50.168;4.410;2023-06-10T03:43:20;5.78;;;5.03;;
58109;SDS011;58943;50.168;4.410;2023-06-10T03:45:46;6.03;;;5.43;;
58109;SDS011;58943;50.168;4.410;2023-06-10T03:48:14;7.82;;;5.10;;
58109;SDS011;58943;50.168;4.410;2023-06-10T03:50:41;6.03;;;5.40;;
58109;SDS011;58943;50.168;4.410;2023-06-10T03:53:08;6.70;;;5.35;;
58109;SDS011;58943;50.168;4.410;2023-06-10T03:55:34;6.65;;;5.95;;
58109;SDS011;58943;50.168;4.410;2023-06-10T03:58:01;5.70;;;5.20;;
58109;SDS011;58943;50.168;4.410;2023-06-10T04:00:27;5.60;;;5.00;;
58109;SDS011;58943;50.168;4.410;2023-06-10T04:02:55;6.03;;;5.43;;
58109;SDS011;58943;50.168;4.410;2023-06-10T04:05:23;6.03;;;5.43;;
58109;SDS011;58943;50.168;4.410;2023-06-10T04:07:49;6.03;;;5.40;;
58109;SDS011;58943;50.168;4.410;2023-06-10T04:10:16;7.68;;;5.65;;
58109;SDS011;58943;50.168;4.410;2023-06-10T04:12:42;5.70;;;5.20;;
58109;SDS011;58943;50.168;4.410;2023-06-10T04:15:08;6.20;;;5.60;;
58109;SDS011;58943;50.168;4.410;2023-06-10T04:17:35;5.97;;;5.38;;
58109;SDS011;58943;50.168;4.410;2023-06-10T04:20:01;6.05;;;5.47;;
58109;SDS011;58943;50.168;4.410;2023-06-10T04:22:29;5.95;;;5.43;;
58109;SDS011;58943;50.168;4.410;2023-06-10T04:24:56;5.78;;;5.28;;
58109;SDS011;58943;50.168;4.410;2023-06-10T04:27:23;6.00;;;5.40;;
58109;SDS011;58943;50.168;4.410;2023-06-10T04:29:49;5.65;;;5.18;;
58109;SDS011;58943;50.168;4.410;2023-06-10T04:32:15;6.22;;;5.63;;
58109;SDS011;58943;50.168;4.410;2023-06-10T04:34:42;5.93;;;5.10;;
58109;SDS011;58943;50.168;4.410;2023-06-10T04:37:08;5.65;;;5.15;;
58109;SDS011;58943;50.168;4.410;2023-06-10T04:39:35;6.53;;;5.60;;
58109;SDS011;58943;50.168;4.410;2023-06-10T04:42:01;6.32;;;5.63;;
58109;SDS011;58943;50.168;4.410;2023-06-10T04:44:28;5.93;;;5.15;;
58109;SDS011;58943;50.168;4.410;2023-06-10T04:46:56;5.65;;;5.15;;
58109;SDS011;58943;50.168;4.410;2023-06-10T04:49:22;6.50;;;4.95;;
58109;SDS011;58943;50.168;4.410;2023-06-10T04:51:48;6.47;;;5.70;;
58109;SDS011;58943;50.168;4.410;2023-06-10T04:54:16;5.82;;;5.00;;
58109;SDS011;58943;50.168;4.410;2023-06-10T04:56:43;6.35;;;5.05;;
58109;SDS011;58943;50.168;4.410;2023-06-10T04:59:09;6.07;;;5.45;;
58109;SDS011;58943;50.168;4.410;2023-06-10T05:01:35;6.68;;;5.75;;
58109;SDS011;58943;50.168;4.410;2023-06-10T05:04:02;5.93;;;5.38;;
58109;SDS011;58943;50.168;4.410;2023-06-10T05:06:29;5.43;;;4.88;;
58109;SDS011;58943;50.168;4.410;2023-06-10T05:08:56;6.13;;;5.53;;
58109;SDS011;58943;50.168;4.410;2023-06-10T05:11:22;7.22;;;5.60;;
58109;SDS011;58943;50.168;4.410;2023-06-10T05:13:48;7.50;;;5.50;;
58109;SDS011;58943;50.168;4.410;2023-06-10T05:16:15;6.18;;;5.40;;
58109;SDS011;58943;50.168;4.410;2023-06-10T05:18:41;5.93;;;5.30;;
58109;SDS011;58943;50.168;4.410;2023-06-10T05:21:08;5.85;;;5.10;;
58109;SDS011;58943;50.168;4.410;2023-06-10T05:23:34;6.35;;;5.32;;
58109;SDS011;58943;50.168;4.410;2023-06-10T05:26:00;6.47;;;5.72;;
58109;SDS011;58943;50.168;4.410;2023-06-10T05:28:27;6.15;;;5.55;;
58109;SDS011;58943;50.168;4.410;2023-06-10T05:30:53;6.20;;;5.60;;
58109;SDS011;58943;50.168;4.410;2023-06-10T05:33:20;6.00;;;5.40;;
58109;SDS011;58943;50.168;4.410;2023-06-10T05:35:46;6.47;;;5.80;;
58109;SDS011;58943;50.168;4.410;2023-06-10T05:38:13;5.88;;;5.20;;
58109;SDS011;58943;50.168;4.410;2023-06-10T05:40:39;7.00;;;6.28;;
58109;SDS011;58943;50.168;4.410;2023-06-10T05:43:06;7.60;;;5.90;;
58109;SDS011;58943;50.168;4.410;2023-06-10T05:45:32;6.55;;;5.95;;
58109;SDS011;58943;50.168;4.410;2023-06-10T05:47:59;5.90;;;5.30;;
58109;SDS011;58943;50.168;4.410;2023-06-10T05:50:25;6.07;;;5.10;;
58109;SDS011;58943;50.168;4.410;2023-06-10T05:52:51;6.40;;;5.80;;
58109;SDS011;58943;50.168;4.410;2023-06-10T05:55:19;6.65;;;5.90;;
58109;SDS011;58943;50.168;4.410;2023-06-10T05:57:45;5.80;;;5.30;;
58109;SDS011;58943;50.168;4.410;2023-06-10T06:00:11;6.25;;;5.22;;
58109;SDS011;58943;50.168;4.410;2023-06-10T06:02:38;6.95;;;5.95;;
58109;SDS011;58943;50.168;4.410;2023-06-10T06:05:05;6.82;;;5.80;;
58109;SDS011;58943;50.168;4.410;2023-06-10T06:07:31;6.05;;;5.45;;
58109;SDS011;58943;50.168;4.410;2023-06-10T06:09:58;6.80;;;6.18;;
58109;SDS011;58943;50.168;4.410;2023-06-10T06:12:24;6.68;;;5.97;;
58109;SDS011;58943;50.168;4.410;2023-06-10T06:14:51;6.47;;;5.90;;
58109;SDS011;58943;50.168;4.410;2023-06-10T06:17:17;7.30;;;6.05;;
58109;SDS011;58943;50.168;4.410;2023-06-10T06:19:44;6.70;;;6.00;;
58109;SDS011;58943;50.168;4.410;2023-06-10T06:22:12;7.53;;;6.20;;
58109;SDS011;58943;50.168;4.410;2023-06-10T06:24:38;5.97;;;5.47;;
58109;SDS011;58943;50.168;4.410;2023-06-10T06:27:05;7.05;;;5.45;;
58109;SDS011;58943;50.168;4.410;2023-06-10T06:29:31;6.30;;;5.43;;
58109;SDS011;58943;50.168;4.410;2023-06-10T06:31:58;6.38;;;5.72;;
58109;SDS011;58943;50.168;4.410;2023-06-10T06:34:24;6.53;;;5.90;;
58109;SDS011;58943;50.168;4.410;2023-06-10T06:36:50;6.53;;;5.93;;
58109;SDS011;58943;50.168;4.410;2023-06-10T06:39:17;6.93;;;5.93;;
58109;SDS011;58943;50.168;4.410;2023-06-10T06:41:43;7.18;;;6.10;;
58109;SDS011;58943;50.168;4.410;2023-06-10T06:44:09;6.90;;;6.20;;
58109;SDS011;58943;50.168;4.410;2023-06-10T06:46:36;6.70;;;6.05;;
58109;SDS011;58943;50.168;4.410;2023-06-10T06:49:02;6.75;;;6.07;;
58109;SDS011;58943;50.168;4.410;2023-06-10T06:51:28;6.35;;;5.63;;
58109;SDS011;58943;50.168;4.410;2023-06-10T06:53:55;5.97;;;5.38;;
58109;SDS011;58943;50.168;4.410;2023-06-10T06:56:24;6.50;;;5.90;;
58109;SDS011;58943;50.168;4.410;2023-06-10T06:58:52;6.88;;;6.28;;
58109;SDS011;58943;50.168;4.410;2023-06-10T07:01:18;6.72;;;5.88;;
58109;SDS011;58943;50.168;4.410;2023-06-10T07:03:45;6.78;;;6.15;;
58109;SDS011;58943;50.168;4.410;2023-06-10T07:06:12;6.03;;;5.43;;
58109;SDS011;58943;50.168;4.410;2023-06-10T07:08:38;6.63;;;5.93;;
58109;SDS011;58943;50.168;4.410;2023-06-10T07:11:05;6.80;;;5.72;;
58109;SDS011;58943;50.168;4.410;2023-06-10T07:13:31;6.63;;;6.03;;
58109;SDS011;58943;50.168;4.410;2023-06-10T07:15:57;6.55;;;5.82;;
58109;SDS011;58943;50.168;4.410;2023-06-10T07:18:24;7.53;;;6.15;;
58109;SDS011;58943;50.168;4.410;2023-06-10T07:20:51;6.82;;;6.10;;
58109;SDS011;58943;50.168;4.410;2023-06-10T07:23:17;6.35;;;5.75;;
58109;SDS011;58943;50.168;4.410;2023-06-10T07:25:44;6.70;;;6.00;;
58109;SDS011;58943;50.168;4.410;2023-06-10T07:28:10;7.07;;;6.20;;
58109;SDS011;58943;50.168;4.410;2023-06-10T07:30:36;6.32;;;5.75;;
58109;SDS011;58943;50.168;4.410;2023-06-10T07:33:03;6.40;;;5.80;;
58109;SDS011;58943;50.168;4.410;2023-06-10T07:35:31;8.17;;;6.17;;
58109;SDS011;58943;50.168;4.410;2023-06-10T07:37:57;8.05;;;5.90;;
58109;SDS011;58943;50.168;4.410;2023-06-10T07:40:23;6.10;;;5.40;;
58109;SDS011;58943;50.168;4.410;2023-06-10T07:42:51;7.43;;;6.03;;
58109;SDS011;58943;50.168;4.410;2023-06-10T07:45:18;6.95;;;6.32;;
58109;SDS011;58943;50.168;4.410;2023-06-10T07:47:44;6.68;;;6.05;;
58109;SDS011;58943;50.168;4.410;2023-06-10T07:50:11;6.45;;;5.95;;
58109;SDS011;58943;50.168;4.410;2023-06-10T07:52:37;6.65;;;6.03;;
58109;SDS011;58943;50.168;4.410;2023-06-10T07:55:04;7.15;;;6.35;;
58109;SDS011;58943;50.168;4.410;2023-06-10T07:57:30;7.00;;;6.30;;
58109;SDS011;58943;50.168;4.410;2023-06-10T08:00:00;6.47;;;5.80;;
58109;SDS011;58943;50.168;4.410;2023-06-10T08:04:55;6.95;;;6.25;;
58109;SDS011;58943;50.168;4.410;2023-06-10T08:07:21;6.57;;;5.95;;
58109;SDS011;58943;50.168;4.410;2023-06-10T08:09:48;7.22;;;6.18;;
58109;SDS011;58943;50.168;4.410;2023-06-10T08:12:14;7.43;;;6.35;;
58109;SDS011;58943;50.168;4.410;2023-06-10T08:14:40;7.13;;;6.43;;
58109;SDS011;58943;50.168;4.410;2023-06-10T08:17:07;7.03;;;5.68;;
58109;SDS011;58943;50.168;4.410;2023-06-10T08:19:33;6.55;;;5.95;;
58109;SDS011;58943;50.168;4.410;2023-06-10T08:22:00;7.72;;;5.70;;
58109;SDS011;58943;50.168;4.410;2023-06-10T08:24:26;6.60;;;6.00;;
58109;SDS011;58943;50.168;4.410;2023-06-10T08:26:53;6.22;;;5.63;;
58109;SDS011;58943;50.168;4.410;2023-06-10T08:29:21;6.40;;;5.80;;
58109;SDS011;58943;50.168;4.410;2023-06-10T08:31:48;6.80;;;6.07;;
58109;SDS011;58943;50.168;4.410;2023-06-10T08:34:14;6.68;;;5.70;;
58109;SDS011;58943;50.168;4.410;2023-06-10T08:36:41;6.60;;;5.93;;
58109;SDS011;58943;50.168;4.410;2023-06-10T08:39:08;6.70;;;6.10;;
58109;SDS011;58943;50.168;4.410;2023-06-10T08:41:35;5.90;;;5.40;;
58109;SDS011;58943;50.168;4.410;2023-06-10T08:44:05;7.25;;;6.10;;
58109;SDS011;58943;50.168;4.410;2023-06-10T08:46:34;6.75;;;6.05;;
58109;SDS011;58943;50.168;4.410;2023-06-10T08:49:02;5.95;;;5.38;;
58109;SDS011;58943;50.168;4.410;2023-06-10T08:51:30;7.43;;;5.88;;
58109;SDS011;58943;50.168;4.410;2023-06-10T08:54:00;7.18;;;5.68;;
58109;SDS011;58943;50.168;4.410;2023-06-10T08:56:28;6.00;;;5.40;;
58109;SDS011;58943;50.168;4.410;2023-06-10T08:58:56;6.72;;;6.00;;
58109;SDS011;58943;50.168;4.410;2023-06-10T09:01:23;7.57;;;5.88;;
58109;SDS011;58943;50.168;4.410;2023-06-10T09:03:50;6.57;;;5.60;;
58109;SDS011;58943;50.168;4.410;2023-06-10T09:06:17;7.30;;;5.72;;
58109;SDS011;58943;50.168;4.410;2023-06-10T09:08:44;6.63;;;5.60;;
58109;SDS011;58943;50.168;4.410;2023-06-10T09:11:10;6.72;;;6.03;;
58109;SDS011;58943;50.168;4.410;2023-06-10T09:13:37;6.15;;;5.55;;
58109;SDS011;58943;50.168;4.410;2023-06-10T09:16:03;6.13;;;5.50;;
58109;SDS011;58943;50.168;4.410;2023-06-10T09:18:30;6.53;;;5.75;;
58109;SDS011;58943;50.168;4.410;2023-06-10T09:20:57;7.20;;;6.07;;
58109;SDS011;58943;50.168;4.410;2023-06-10T09:23:23;7.22;;;5.10;;
58109;SDS011;58943;50.168;4.410;2023-06-10T09:25:57;6.97;;;6.25;;
58109;SDS011;58943;50.168;4.410;2023-06-10T09:28:24;5.93;;;5.32;;
58109;SDS011;58943;50.168;4.410;2023-06-10T09:31:02;6.30;;;5.70;;
58109;SDS011;58943;50.168;4.410;2023-06-10T09:33:30;5.60;;;5.10;;
58109;SDS011;58943;50.168;4.410;2023-06-10T09:35:57;6.15;;;5.60;;
58109;SDS011;58943;50.168;4.410;2023-06-10T09:40:52;6.00;;;5.40;;
58109;SDS011;58943;50.168;4.410;2023-06-10T09:43:19;5.70;;;5.20;;
58109;SDS011;58943;50.168;4.410;2023-06-10T09:45:49;5.72;;;4.90;;
58109;SDS011;58943;50.168;4.410;2023-06-10T09:48:19;6.88;;;5.30;;
58109;SDS011;58943;50.168;4.410;2023-06-10T09:50:45;6.15;;;5.20;;
58109;SDS011;58943;50.168;4.410;2023-06-10T09:53:12;5.47;;;4.97;;
58109;SDS011;58943;50.168;4.410;2023-06-10T09:55:38;5.97;;;5.47;;
58109;SDS011;58943;50.168;4.410;2023-06-10T09:58:05;6.47;;;5.68;;
58109;SDS011;58943;50.168;4.410;2023-06-10T10:00:32;8.02;;;5.30;;
58109;SDS011;58943;50.168;4.410;2023-06-10T10:02:58;6.97;;;5.35;;
58109;SDS011;58943;50.168;4.410;2023-06-10T10:05:25;5.90;;;4.97;;
58109;SDS011;58943;50.168;4.410;2023-06-10T10:07:51;6.20;;;5.18;;
58109;SDS011;58943;50.168;4.410;2023-06-10T10:10:19;5.90;;;5.30;;
58109;SDS011;58943;50.168;4.410;2023-06-10T10:12:46;5.72;;;5.10;;
58109;SDS011;58943;50.168;4.410;2023-06-10T10:15:12;6.55;;;5.32;;
58109;SDS011;58943;50.168;4.410;2023-06-10T10:18:21;5.85;;;5.22;;
58109;SDS011;58943;50.168;4.410;2023-06-10T10:20:29;7.38;;;5.57;;
58109;SDS011;58943;50.168;4.410;2023-06-10T10:25:25;6.88;;;5.47;;
58109;SDS011;58943;50.168;4.410;2023-06-10T10:27:58;7.55;;;5.47;;
58109;SDS011;58943;50.168;4.410;2023-06-10T10:30:25;6.78;;;5.65;;
58109;SDS011;58943;50.168;4.410;2023-06-10T10:35:38;6.15;;;5.55;;
58109;SDS011;58943;50.168;4.410;2023-06-10T10:38:04;6.03;;;5.35;;
58109;SDS011;58943;50.168;4.410;2023-06-10T10:40:31;7.88;;;5.10;;
58109;SDS011;58943;50.168;4.410;2023-06-10T10:42:58;6.00;;;5.40;;
58109;SDS011;58943;50.168;4.410;2023-06-10T10:45:27;5.80;;;5.30;;
58109;SDS011;58943;50.168;4.410;2023-06-10T10:47:54;7.28;;;5.28;;
58109;SDS011;58943;50.168;4.410;2023-06-10T10:50:20;5.70;;;5.20;;
58109;SDS011;58943;50.168;4.410;2023-06-10T10:55:13;6.50;;;5.25;;
58109;SDS011;58943;50.168;4.410;2023-06-10T10:57:40;6.75;;;5.55;;
58109;SDS011;58943;50.168;4.410;2023-06-10T11:00:06;9.07;;;5.10;;
58109;SDS011;58943;50.168;4.410;2023-06-10T11:02:35;5.68;;;5.10;;
58109;SDS011;58943;50.168;4.410;2023-06-10T11:05:15;5.80;;;5.18;;
58109;SDS011;58943;50.168;4.410;2023-06-10T11:07:51;6.07;;;5.47;;
58109;SDS011;58943;50.168;4.410;2023-06-10T11:10:28;7.97;;;5.28;;
58109;SDS011;58943;50.168;4.410;2023-06-10T11:12:56;5.82;;;5.22;;
58109;SDS011;58943;50.168;4.410;2023-06-10T11:15:26;6.65;;;5.40;;
58109;SDS011;58943;50.168;4.410;2023-06-10T11:20:45;6.35;;;5.28;;
58109;SDS011;58943;50.168;4.410;2023-06-10T11:23:24;6.68;;;5.60;;
58109;SDS011;58943;50.168;4.410;2023-06-10T11:25:51;6.10;;;5.45;;
58109;SDS011;58943;50.168;4.410;2023-06-10T11:28:18;6.22;;;5.63;;
58109;SDS011;58943;50.168;4.410;2023-06-10T11:30:44;6.10;;;5.50;;
58109;SDS011;58943;50.168;4.410;2023-06-10T11:33:14;6.85;;;5.80;;
58109;SDS011;58943;50.168;4.410;2023-06-10T11:35:41;8.50;;;5.68;;
58109;SDS011;58943;50.168;4.410;2023-06-10T11:38:07;6.82;;;5.43;;
58109;SDS011;58943;50.168;4.410;2023-06-10T11:40:34;5.97;;;5.47;;
58109;SDS011;58943;50.168;4.410;2023-06-10T11:43:00;5.75;;;5.15;;
58109;SDS011;58943;50.168;4.410;2023-06-10T11:45:27;6.85;;;5.40;;
58109;SDS011;58943;50.168;4.410;2023-06-10T11:47:59;6.32;;;5.72;;
58109;SDS011;58943;50.168;4.410;2023-06-10T11:50:32;7.07;;;5.30;;
58109;SDS011;58943;50.168;4.410;2023-06-10T11:52:59;6.75;;;5.90;;
58109;SDS011;58943;50.168;4.410;2023-06-10T11:55:39;6.30;;;5.70;;
58109;SDS011;58943;50.168;4.410;2023-06-10T11:58:11;6.50;;;5.90;;
58109;SDS011;58943;50.168;4.410;2023-06-10T12:00:43;6.20;;;5.68;;
58109;SDS011;58943;50.168;4.410;2023-06-10T12:03:10;7.13;;;6.10;;
58109;SDS011;58943;50.168;4.410;2023-06-10T12:05:37;6.38;;;5.68;;
58109;SDS011;58943;50.168;4.410;2023-06-10T12:08:10;6.65;;;6.05;;
58109;SDS011;58943;50.168;4.410;2023-06-10T12:10:42;7.03;;;6.40;;
58109;SDS011;58943;50.168;4.410;2023-06-10T12:13:09;7.95;;;6.32;;
58109;SDS011;58943;50.168;4.410;2023-06-10T12:15:36;7.03;;;6.32;;
58109;SDS011;58943;50.168;4.410;2023-06-10T12:18:02;6.70;;;6.10;;
58109;SDS011;58943;50.168;4.410;2023-06-10T12:20:32;7.63;;;6.95;;
58109;SDS011;58943;50.168;4.410;2023-06-10T12:22:59;6.80;;;5.95;;
58109;SDS011;58943;50.168;4.410;2023-06-10T12:25:29;7.05;;;6.35;;
58109;SDS011;58943;50.168;4.410;2023-06-10T12:27:57;6.60;;;5.90;;
58109;SDS011;58943;50.168;4.410;2023-06-10T12:30:24;6.43;;;5.82;;
58109;SDS011;58943;50.168;4.410;2023-06-10T12:32:51;8.45;;;6.18;;
58109;SDS011;58943;50.168;4.410;2023-06-10T12:35:19;6.55;;;5.93;;
58109;SDS011;58943;50.168;4.410;2023-06-10T12:40:26;6.55;;;6.05;;
58109;SDS011;58943;50.168;4.410;2023-06-10T12:42:54;7.88;;;7.00;;
58109;SDS011;58943;50.168;4.410;2023-06-10T12:45:34;7.20;;;6.50;;
58109;SDS011;58943;50.168;4.410;2023-06-10T12:50:37;7.85;;;6.45;;
58109;SDS011;58943;50.168;4.410;2023-06-10T12:53:04;7.53;;;6.82;;
58109;SDS011;58943;50.168;4.410;2023-06-10T12:55:31;8.32;;;6.68;;
58109;SDS011;58943;50.168;4.410;2023-06-10T12:57:57;7.78;;;7.03;;
58109;SDS011;58943;50.168;4.410;2023-06-10T13:00:24;7.13;;;6.53;;
58109;SDS011;58943;50.168;4.410;2023-06-10T13:02:56;7.28;;;6.57;;
58109;SDS011;58943;50.168;4.410;2023-06-10T13:05:23;8.15;;;7.00;;
58109;SDS011;58943;50.168;4.410;2023-06-10T13:07:49;7.03;;;6.43;;
58109;SDS011;58943;50.168;4.410;2023-06-10T13:10:16;7.13;;;6.50;;
58109;SDS011;58943;50.168;4.410;2023-06-10T13:12:43;8.70;;;6.78;;
58109;SDS011;58943;50.168;4.410;2023-06-10T13:15:11;6.85;;;6.15;;
58109;SDS011;58943;50.168;4.410;2023-06-10T13:17:37;7.18;;;6.57;;
58109;SDS011;58943;50.168;4.410;2023-06-10T13:20:05;8.05;;;6.57;;
58109;SDS011;58943;50.168;4.410;2023-06-10T13:22:33;7.35;;;6.63;;
58109;SDS011;58943;50.168;4.410;2023-06-10T13:27:28;8.20;;;6.35;;
58109;SDS011;58943;50.168;4.410;2023-06-10T13:29:54;7.18;;;6.47;;
58109;SDS011;58943;50.168;4.410;2023-06-10T13:32:21;7.80;;;7.00;;
58109;SDS011;58943;50.168;4.410;2023-06-10T13:34:47;8.10;;;6.20;;
58109;SDS011;58943;50.168;4.410;2023-06-10T13:37:14;6.97;;;6.28;;
58109;SDS011;58943;50.168;4.410;2023-06-10T13:39:43;7.63;;;6.43;;
58109;SDS011;58943;50.168;4.410;2023-06-10T13:42:10;6.78;;;6.07;;
58109;SDS011;58943;50.168;4.410;2023-06-10T13:44:37;7.03;;;6.32;;
58109;SDS011;58943;50.168;4.410;2023-06-10T13:47:03;7.22;;;6.32;;
58109;SDS011;58943;50.168;4.410;2023-06-10T13:49:30;8.27;;;6.13;;
58109;SDS011;58943;50.168;4.410;2023-06-10T13:51:56;7.95;;;6.30;;
58109;SDS011;58943;50.168;4.410;2023-06-10T13:54:23;6.80;;;6.07;;
58109;SDS011;58943;50.168;4.410;2023-06-10T13:56:49;6.78;;;6.00;;
58109;SDS011;58943;50.168;4.410;2023-06-10T13:59:16;5.93;;;5.43;;
58109;SDS011;58943;50.168;4.410;2023-06-10T14:01:42;6.78;;;6.07;;
58109;SDS011;58943;50.168;4.410;2023-06-10T14:04:08;6.70;;;6.00;;
58109;SDS011;58943;50.168;4.410;2023-06-10T14:06:35;6.90;;;6.20;;
58109;SDS011;58943;50.168;4.410;2023-06-10T14:09:02;6.75;;;6.03;;
58109;SDS011;58943;50.168;4.410;2023-06-10T14:11:28;7.18;;;6.25;;
58109;SDS011;58943;50.168;4.410;2023-06-10T14:13:54;6.50;;;5.90;;
58109;SDS011;58943;50.168;4.410;2023-06-10T14:16:24;7.75;;;6.32;;
58109;SDS011;58943;50.168;4.410;2023-06-10T14:18:50;6.82;;;6.15;;
58109;SDS011;58943;50.168;4.410;2023-06-10T14:21:17;7.15;;;6.47;;
58109;SDS011;58943;50.168;4.410;2023-06-10T14:23:43;8.55;;;6.45;;
58109;SDS011;58943;50.168;4.410;2023-06-10T14:26:10;7.00;;;6.30;;
58109;SDS011;58943;50.168;4.410;2023-06-10T14:28:37;8.55;;;6.15;;
58109;SDS011;58943;50.168;4.410;2023-06-10T14:31:03;6.75;;;6.05;;
58109;SDS011;58943;50.168;4.410;2023-06-10T14:33:29;7.15;;;6.30;;
58109;SDS011;58943;50.168;4.410;2023-06-10T14:35:56;6.95;;;6.25;;
58109;SDS011;58943;50.168;4.410;2023-06-10T14:38:24;6.30;;;5.70;;
58109;SDS011;58943;50.168;4.410;2023-06-10T14:40:50;8.55;;;6.30;;
58109;SDS011;58943;50.168;4.410;2023-06-10T14:43:18;7.07;;;5.90;;
58109;SDS011;58943;50.168;4.410;2023-06-10T14:45:44;7.30;;;6.03;;
58109;SDS011;58943;50.168;4.410;2023-06-10T14:48:10;7.20;;;6.40;;
58109;SDS011;58943;50.168;4.410;2023-06-10T14:50:38;8.52;;;6.53;;
58109;SDS011;58943;50.168;4.410;2023-06-10T14:53:06;6.45;;;5.80;;
58109;SDS011;58943;50.168;4.410;2023-06-10T14:55:32;7.20;;;6.13;;
58109;SDS011;58943;50.168;4.410;2023-06-10T14:57:59;7.25;;;6.55;;
58109;SDS011;58943;50.168;4.410;2023-06-10T15:00:25;7.00;;;6.35;;
58109;SDS011;58943;50.168;4.410;2023-06-10T15:02:51;6.85;;;6.25;;
58109;SDS011;58943;50.168;4.410;2023-06-10T15:05:20;7.25;;;6.55;;
58109;SDS011;58943;50.168;4.410;2023-06-10T15:07:47;6.65;;;5.95;;
58109;SDS011;58943;50.168;4.410;2023-06-10T15:10:14;6.30;;;5.75;;
58109;SDS011;58943;50.168;4.410;2023-06-10T15:12:41;6.93;;;6.28;;
58109;SDS011;58943;50.168;4.410;2023-06-10T15:15:08;6.70;;;6.00;;
58109;SDS011;58943;50.168;4.410;2023-06-10T15:17:34;6.63;;;6.03;;
58109;SDS011;58943;50.168;4.410;2023-06-10T15:20:01;6.57;;;5.97;;
58109;SDS011;58943;50.168;4.410;2023-06-10T15:22:27;7.30;;;6.60;;